sensor_id;sensor_type;location;lat;lon;timestamp;pressure;altitude;pressure_sealevel;temperature;humidity
10732;BME280;5417;42.686;23.244;2023-06-26T00:00:28;94099.44;;;21.15;81.44
10732;BME280;5417;42.686;23.244;2023-06-26T00:02:58;94105.75;;;21.20;81.53
10732;BME280;5417;42.686;23.244;2023-06-26T00:05:29;94106.13;;;21.10;82.02
10732;BME280;5417;42.686;23.244;2023-06-26T00:07:56;94102.88;;;21.15;81.73
10732;BME280;5417;42.686;23.244;2023-06-26T00:10:27;94104.25;;;21.04;81.88
10732;BME280;5417;42.686;23.244;2023-06-26T00:12:54;94107.34;;;21.08;82.11
10732;BME280;5417;42.686;23.244;2023-06-26T00:15:20;94104.06;;;21.06;81.73
10732;BME280;5417;42.686;23.244;2023-06-26T00:17:47;94109.19;;;21.14;81.86
10732;BME280;5417;42.686;23.244;2023-06-26T00:20:18;94106.53;;;21.14;81.46
10732;BME280;5417;42.686;23.244;2023-06-26T00:22:48;94101.88;;;21.16;81.51
10732;BME280;5417;42.686;23.244;2023-06-26T00:25:16;94078.38;;;21.00;81.15
10732;BME280;5417;42.686;23.244;2023-06-26T00:27:46;94096.34;;;21.11;81.36
10732;BME280;5417;42.686;23.244;2023-06-26T00:34:04;94096.56;;;21.09;81.60
10732;BME280;5417;42.686;23.244;2023-06-26T00:50:05;94094.31;;;21.13;82.00
10732;BME280;5417;42.686;23.244;2023-06-26T00:56:46;94087.28;;;21.27;81.01
10732;BME280;5417;42.686;23.244;2023-06-26T01:04:57;94079.50;;;21.19;80.66
10732;BME280;5417;42.686;23.244;2023-06-26T01:07:40;94080.50;;;21.18;80.91
10732;BME280;5417;42.686;23.244;2023-06-26T01:11:03;94074.38;;;21.17;80.72
10732;BME280;5417;42.686;23.244;2023-06-26T01:13:26;94070.91;;;21.10;80.96
10732;BME280;5417;42.686;23.244;2023-06-26T01:42:00;94029.69;;;20.53;81.63
10732;BME280;5417;42.686;23.244;2023-06-26T01:44:29;94049.63;;;20.56;81.92
10732;BME280;5417;42.686;23.244;2023-06-26T01:47:01;94055.50;;;20.51;82.02
10732;BME280;5417;42.686;23.244;2023-06-26T01:49:40;94053.72;;;20.58;82.35
10732;BME280;5417;42.686;23.244;2023-06-26T01:56:05;94044.59;;;20.61;80.99
10732;BME280;5417;42.686;23.244;2023-06-26T01:58:38;94039.25;;;20.54;81.53
10732;BME280;5417;42.686;23.244;2023-06-26T02:01:10;94041.09;;;20.54;81.36
10732;BME280;5417;42.686;23.244;2023-06-26T02:03:38;94039.91;;;20.63;81.17
10732;BME280;5417;42.686;23.244;2023-06-26T02:06:04;94043.97;;;20.59;81.26
10732;BME280;5417;42.686;23.244;2023-06-26T02:08:35;94033.34;;;20.52;80.85
10732;BME280;5417;42.686;23.244;2023-06-26T02:12:55;94042.72;;;20.55;80.54
10732;BME280;5417;42.686;23.244;2023-06-26T02:14:42;94047.59;;;20.51;80.52
10732;BME280;5417;42.686;23.244;2023-06-26T02:17:09;94042.25;;;20.44;81.22
10732;BME280;5417;42.686;23.244;2023-06-26T02:19:38;94038.63;;;20.52;80.73
10732;BME280;5417;42.686;23.244;2023-06-26T02:22:16;94042.72;;;20.55;80.79
10732;BME280;5417;42.686;23.244;2023-06-26T02:24:43;94032.97;;;20.55;80.92
10732;BME280;5417;42.686;23.244;2023-06-26T02:27:13;94034.56;;;20.50;80.73
10732;BME280;5417;42.686;23.244;2023-06-26T02:29:44;94031.59;;;20.38;81.27
10732;BME280;5417;42.686;23.244;2023-06-26T02:32:12;94036.16;;;20.44;81.61
10732;BME280;5417;42.686;23.244;2023-06-26T02:34:39;94038.22;;;20.48;81.13
10732;BME280;5417;42.686;23.244;2023-06-26T02:37:06;94038.53;;;20.39;81.49
10732;BME280;5417;42.686;23.244;2023-06-26T02:39:33;94040.66;;;20.50;81.19
10732;BME280;5417;42.686;23.244;2023-06-26T03:12:29;94057.72;;;20.47;80.32
10732;BME280;5417;42.686;23.244;2023-06-26T03:14:56;94050.84;;;20.53;80.30
10732;BME280;5417;42.686;23.244;2023-06-26T03:17:23;94046.13;;;20.48;80.38
10732;BME280;5417;42.686;23.244;2023-06-26T03:19:49;94050.38;;;20.43;80.27
10732;BME280;5417;42.686;23.244;2023-06-26T03:22:16;94053.66;;;20.45;80.49
10732;BME280;5417;42.686;23.244;2023-06-26T03:31:00;94041.66;;;20.49;80.15
10732;BME280;5417;42.686;23.244;2023-06-26T03:34:04;94053.06;;;20.50;80.34
10732;BME280;5417;42.686;23.244;2023-06-26T03:36:31;94061.34;;;20.40;81.03
10732;BME280;5417;42.686;23.244;2023-06-26T03:38:58;94056.06;;;20.40;81.06
10732;BME280;5417;42.686;23.244;2023-06-26T03:41:25;94053.56;;;20.38;81.14
10732;BME280;5417;42.686;23.244;2023-06-26T03:43:52;94058.53;;;20.48;80.86
10732;BME280;5417;42.686;23.244;2023-06-26T03:46:21;94058.97;;;20.52;80.76
10732;BME280;5417;42.686;23.244;2023-06-26T03:51:56;94051.03;;;20.52;80.13
10732;BME280;5417;42.686;23.244;2023-06-26T03:54:23;94045.53;;;20.46;80.57
10732;BME280;5417;42.686;23.244;2023-06-26T03:56:51;94051.47;;;20.55;80.17
10732;BME280;5417;42.686;23.244;2023-06-26T03:59:18;94054.06;;;20.48;79.92
10732;BME280;5417;42.686;23.244;2023-06-26T04:01:46;94055.03;;;20.41;80.49
10732;BME280;5417;42.686;23.244;2023-06-26T04:04:13;94050.19;;;20.44;81.22
10732;BME280;5417;42.686;23.244;2023-06-26T04:06:40;94052.28;;;20.56;80.40
10732;BME280;5417;42.686;23.244;2023-06-26T04:09:07;94052.94;;;20.64;79.85
10732;BME280;5417;42.686;23.244;2023-06-26T04:11:35;94056.84;;;20.68;79.78
10732;BME280;5417;42.686;23.244;2023-06-26T04:14:02;94043.56;;;20.62;79.72
10732;BME280;5417;42.686;23.244;2023-06-26T04:16:31;94051.97;;;20.72;79.22
10732;BME280;5417;42.686;23.244;2023-06-26T04:18:59;94053.78;;;20.71;79.31
10732;BME280;5417;42.686;23.244;2023-06-26T04:21:27;94056.00;;;20.68;80.01
10732;BME280;5417;42.686;23.244;2023-06-26T04:23:54;94060.31;;;20.75;79.58
10732;BME280;5417;42.686;23.244;2023-06-26T04:26:21;94051.97;;;20.72;79.10
10732;BME280;5417;42.686;23.244;2023-06-26T04:28:48;94059.81;;;20.87;79.66
10732;BME280;5417;42.686;23.244;2023-06-26T04:31:18;94061.31;;;21.02;79.32
10732;BME280;5417;42.686;23.244;2023-06-26T04:33:45;94058.13;;;21.20;79.42
10732;BME280;5417;42.686;23.244;2023-06-26T04:36:18;94059.13;;;21.19;77.72
10732;BME280;5417;42.686;23.244;2023-06-26T04:38:44;94059.59;;;21.29;77.78
10732;BME280;5417;42.686;23.244;2023-06-26T04:41:15;94052.13;;;21.39;77.37
10732;BME280;5417;42.686;23.244;2023-06-26T04:43:42;94056.25;;;21.55;77.05
10732;BME280;5417;42.686;23.244;2023-06-26T04:46:09;94055.88;;;21.78;76.95
10732;BME280;5417;42.686;23.244;2023-06-26T04:48:36;94057.56;;;22.25;75.08
10732;BME280;5417;42.686;23.244;2023-06-26T04:51:05;94058.59;;;22.57;74.07
10732;BME280;5417;42.686;23.244;2023-06-26T04:53:36;94055.09;;;22.90;72.63
10732;BME280;5417;42.686;23.244;2023-06-26T04:56:03;94068.75;;;22.87;70.09
10732;BME280;5417;42.686;23.244;2023-06-26T04:58:30;94052.22;;;22.72;70.70
10732;BME280;5417;42.686;23.244;2023-06-26T05:00:57;94055.91;;;22.71;71.47
10732;BME280;5417;42.686;23.244;2023-06-26T05:03:24;94054.69;;;22.93;70.53
10732;BME280;5417;42.686;23.244;2023-06-26T05:05:51;94060.78;;;22.87;70.67
10732;BME280;5417;42.686;23.244;2023-06-26T05:08:23;94063.25;;;22.88;71.03
10732;BME280;5417;42.686;23.244;2023-06-26T05:10:53;94063.00;;;23.10;70.85
10732;BME280;5417;42.686;23.244;2023-06-26T05:13:23;94067.91;;;23.06;69.48
10732;BME280;5417;42.686;23.244;2023-06-26T05:15:50;94069.16;;;23.04;69.87
10732;BME280;5417;42.686;23.244;2023-06-26T05:18:17;94073.59;;;23.16;70.19
10732;BME280;5417;42.686;23.244;2023-06-26T05:20:45;94073.91;;;23.40;69.47
10732;BME280;5417;42.686;23.244;2023-06-26T05:23:17;94071.88;;;23.42;68.49
10732;BME280;5417;42.686;23.244;2023-06-26T05:26:11;94073.28;;;23.38;67.92
10732;BME280;5417;42.686;23.244;2023-06-26T05:28:39;94082.22;;;23.05;68.96
10732;BME280;5417;42.686;23.244;2023-06-26T05:31:06;94079.97;;;22.89;69.63
10732;BME280;5417;42.686;23.244;2023-06-26T05:33:35;94083.03;;;22.73;70.24
10732;BME280;5417;42.686;23.244;2023-06-26T05:36:04;94084.13;;;22.39;72.15
10732;BME280;5417;42.686;23.244;2023-06-26T05:38:32;94081.63;;;22.24;72.50
10732;BME280;5417;42.686;23.244;2023-06-26T05:44:09;94087.34;;;22.14;72.97
10732;BME280;5417;42.686;23.244;2023-06-26T05:46:36;94085.25;;;21.90;73.09
10732;BME280;5417;42.686;23.244;2023-06-26T05:49:03;94081.13;;;21.74;75.37
10732;BME280;5417;42.686;23.244;2023-06-26T05:52:24;94088.88;;;21.76;74.88
10732;BME280;5417;42.686;23.244;2023-06-26T05:54:45;94089.00;;;21.48;74.43
10732;BME280;5417;42.686;23.244;2023-06-26T05:57:13;94082.81;;;21.27;76.10
10732;BME280;5417;42.686;23.244;2023-06-26T05:59:43;94094.63;;;21.31;77.41
10732;BME280;5417;42.686;23.244;2023-06-26T06:02:35;94096.31;;;21.39;76.38
10732;BME280;5417;42.686;23.244;2023-06-26T06:05:04;94094.72;;;21.45;75.77
10732;BME280;5417;42.686;23.244;2023-06-26T06:07:34;94101.22;;;21.42;75.77
10732;BME280;5417;42.686;23.244;2023-06-26T06:10:02;94088.78;;;21.42;76.47
10732;BME280;5417;42.686;23.244;2023-06-26T06:12:55;94094.75;;;21.64;75.46
10732;BME280;5417;42.686;23.244;2023-06-26T06:15:23;94092.53;;;21.68;74.22
10732;BME280;5417;42.686;23.244;2023-06-26T06:17:50;94093.97;;;21.77;74.59
10732;BME280;5417;42.686;23.244;2023-06-26T06:20:18;94090.72;;;21.75;75.15
10732;BME280;5417;42.686;23.244;2023-06-26T06:23:50;94084.25;;;21.91;74.31
10732;BME280;5417;42.686;23.244;2023-06-26T06:26:07;94078.69;;;21.79;74.21
10732;BME280;5417;42.686;23.244;2023-06-26T06:28:34;94080.94;;;21.76;73.88
10732;BME280;5417;42.686;23.244;2023-06-26T06:31:03;94084.19;;;21.78;75.33
10732;BME280;5417;42.686;23.244;2023-06-26T06:33:30;94086.91;;;21.97;75.39
10732;BME280;5417;42.686;23.244;2023-06-26T06:35:57;94085.31;;;22.10;73.52
10732;BME280;5417;42.686;23.244;2023-06-26T06:38:24;94077.16;;;22.31;72.39
10732;BME280;5417;42.686;23.244;2023-06-26T06:40:51;94078.56;;;22.66;71.87
10732;BME280;5417;42.686;23.244;2023-06-26T06:43:18;94073.69;;;22.57;70.53
10732;BME280;5417;42.686;23.244;2023-06-26T06:45:45;94075.31;;;22.64;71.07
10732;BME280;5417;42.686;23.244;2023-06-26T06:48:13;94079.16;;;22.75;71.47
10732;BME280;5417;42.686;23.244;2023-06-26T06:50:40;94074.28;;;22.85;69.65
10732;BME280;5417;42.686;23.244;2023-06-26T06:53:07;94069.97;;;23.04;67.71
10732;BME280;5417;42.686;23.244;2023-06-26T06:55:55;94076.38;;;23.35;67.51
10732;BME280;5417;42.686;23.244;2023-06-26T06:58:22;94077.38;;;23.47;67.15
10732;BME280;5417;42.686;23.244;2023-06-26T07:00:49;94067.84;;;23.19;66.88
10732;BME280;5417;42.686;23.244;2023-06-26T07:03:18;94077.78;;;23.37;68.06
10732;BME280;5417;42.686;23.244;2023-06-26T07:05:46;94078.53;;;23.64;68.51
10732;BME280;5417;42.686;23.244;2023-06-26T07:08:26;94054.69;;;23.38;65.47
10732;BME280;5417;42.686;23.244;2023-06-26T07:10:55;94054.03;;;23.62;67.11
10732;BME280;5417;42.686;23.244;2023-06-26T07:13:25;94049.69;;;23.68;66.33
10732;BME280;5417;42.686;23.244;2023-06-26T07:15:51;94050.91;;;23.72;66.19
10732;BME280;5417;42.686;23.244;2023-06-26T07:18:22;94039.53;;;23.51;64.25
10732;BME280;5417;42.686;23.244;2023-06-26T07:20:53;94065.06;;;23.59;64.51
10732;BME280;5417;42.686;23.244;2023-06-26T07:23:24;94071.38;;;24.03;67.28
10732;BME280;5417;42.686;23.244;2023-06-26T07:25:55;94053.53;;;24.10;63.78
10732;BME280;5417;42.686;23.244;2023-06-26T07:28:22;94070.22;;;24.17;63.82
10732;BME280;5417;42.686;23.244;2023-06-26T07:30:49;94072.22;;;23.97;64.62
10732;BME280;5417;42.686;23.244;2023-06-26T07:33:27;94065.38;;;23.76;64.31
10732;BME280;5417;42.686;23.244;2023-06-26T07:35:54;94058.31;;;23.63;64.81
10732;BME280;5417;42.686;23.244;2023-06-26T07:38:28;94062.25;;;23.85;64.60
10732;BME280;5417;42.686;23.244;2023-06-26T07:40:55;94059.47;;;24.05;63.68
10732;BME280;5417;42.686;23.244;2023-06-26T07:43:24;94069.84;;;24.13;62.23
10732;BME280;5417;42.686;23.244;2023-06-26T07:45:51;94054.38;;;24.04;63.05
10732;BME280;5417;42.686;23.244;2023-06-26T07:48:22;94065.66;;;24.31;62.97
10732;BME280;5417;42.686;23.244;2023-06-26T07:50:52;94072.38;;;24.33;62.79
10732;BME280;5417;42.686;23.244;2023-06-26T07:53:19;94066.78;;;24.41;61.23
10732;BME280;5417;42.686;23.244;2023-06-26T07:55:46;94071.06;;;24.49;61.62
10732;BME280;5417;42.686;23.244;2023-06-26T07:58:16;94073.88;;;24.54;61.41
10732;BME280;5417;42.686;23.244;2023-06-26T08:00:43;94068.72;;;24.59;60.47
10732;BME280;5417;42.686;23.244;2023-06-26T08:03:12;94075.41;;;24.86;64.09
10732;BME280;5417;42.686;23.244;2023-06-26T08:05:39;94077.41;;;24.91;59.84
10732;BME280;5417;42.686;23.244;2023-06-26T08:08:15;94069.09;;;24.81;60.20
10732;BME280;5417;42.686;23.244;2023-06-26T08:10:42;94073.81;;;24.61;58.83
10732;BME280;5417;42.686;23.244;2023-06-26T08:13:09;94063.69;;;24.69;59.79
10732;BME280;5417;42.686;23.244;2023-06-26T08:15:38;94061.19;;;24.74;60.35
10732;BME280;5417;42.686;23.244;2023-06-26T08:18:05;94067.69;;;24.60;58.84
10732;BME280;5417;42.686;23.244;2023-06-26T08:20:32;94068.06;;;24.64;60.15
10732;BME280;5417;42.686;23.244;2023-06-26T08:23:01;94064.81;;;24.80;61.77
10732;BME280;5417;42.686;23.244;2023-06-26T08:25:29;94058.75;;;24.91;59.28
10732;BME280;5417;42.686;23.244;2023-06-26T08:27:58;94061.41;;;24.98;58.10
10732;BME280;5417;42.686;23.244;2023-06-26T08:30:28;94050.47;;;25.06;58.17
10732;BME280;5417;42.686;23.244;2023-06-26T08:32:54;94060.97;;;25.19;57.17
10732;BME280;5417;42.686;23.244;2023-06-26T08:35:24;94062.81;;;25.19;58.98
10732;BME280;5417;42.686;23.244;2023-06-26T08:37:51;94065.56;;;24.87;56.69
10732;BME280;5417;42.686;23.244;2023-06-26T08:40:20;94068.56;;;24.72;57.58
10732;BME280;5417;42.686;23.244;2023-06-26T08:42:49;94074.22;;;24.33;58.98
10732;BME280;5417;42.686;23.244;2023-06-26T08:45:20;94067.06;;;24.58;59.54
10732;BME280;5417;42.686;23.244;2023-06-26T08:47:48;94068.59;;;24.47;57.84
10732;BME280;5417;42.686;23.244;2023-06-26T08:50:20;94074.06;;;24.28;57.33
10732;BME280;5417;42.686;23.244;2023-06-26T08:52:54;94071.59;;;24.26;58.59
10732;BME280;5417;42.686;23.244;2023-06-26T08:55:27;94066.47;;;24.31;58.17
10732;BME280;5417;42.686;23.244;2023-06-26T08:58:01;94051.13;;;24.02;58.18
10732;BME280;5417;42.686;23.244;2023-06-26T09:00:28;94043.00;;;23.90;58.78
10732;BME280;5417;42.686;23.244;2023-06-26T09:02:58;94060.50;;;24.36;60.77
10732;BME280;5417;42.686;23.244;2023-06-26T09:05:25;94061.78;;;24.27;57.52
10732;BME280;5417;42.686;23.244;2023-06-26T09:07:57;94041.41;;;24.45;59.05
10732;BME280;5417;42.686;23.244;2023-06-26T09:10:30;94059.03;;;24.65;57.36
10732;BME280;5417;42.686;23.244;2023-06-26T09:12:58;94055.53;;;24.46;57.40
10732;BME280;5417;42.686;23.244;2023-06-26T09:15:40;94049.19;;;24.40;58.33
10732;BME280;5417;42.686;23.244;2023-06-26T09:18:08;94045.94;;;24.38;58.97
10732;BME280;5417;42.686;23.244;2023-06-26T09:20:38;94065.00;;;24.35;59.28
10732;BME280;5417;42.686;23.244;2023-06-26T09:23:07;94069.50;;;24.35;60.25
10732;BME280;5417;42.686;23.244;2023-06-26T09:25:38;94043.22;;;24.20;57.96
10732;BME280;5417;42.686;23.244;2023-06-26T09:28:09;94053.50;;;24.41;57.99
10732;BME280;5417;42.686;23.244;2023-06-26T09:30:39;94067.16;;;24.70;56.63
10732;BME280;5417;42.686;23.244;2023-06-26T09:33:17;94065.66;;;24.56;58.74
10732;BME280;5417;42.686;23.244;2023-06-26T09:35:47;94065.75;;;24.67;56.61
10732;BME280;5417;42.686;23.244;2023-06-26T09:38:14;94053.03;;;24.51;53.44
10732;BME280;5417;42.686;23.244;2023-06-26T09:40:47;94062.38;;;24.78;54.31
10732;BME280;5417;42.686;23.244;2023-06-26T09:43:23;94065.84;;;25.04;54.51
10732;BME280;5417;42.686;23.244;2023-06-26T09:45:50;94051.56;;;24.98;52.40
10732;BME280;5417;42.686;23.244;2023-06-26T09:48:19;94058.75;;;24.98;52.98
10732;BME280;5417;42.686;23.244;2023-06-26T09:54:21;94054.16;;;24.37;54.75
10732;BME280;5417;42.686;23.244;2023-06-26T09:57:28;94059.53;;;24.55;55.73
10732;BME280;5417;42.686;23.244;2023-06-26T09:59:58;94058.81;;;24.66;53.77
10732;BME280;5417;42.686;23.244;2023-06-26T10:02:25;94058.09;;;24.77;54.01
10732;BME280;5417;42.686;23.244;2023-06-26T10:04:52;94052.25;;;24.87;53.60
10732;BME280;5417;42.686;23.244;2023-06-26T10:07:21;94053.72;;;24.65;54.67
10732;BME280;5417;42.686;23.244;2023-06-26T10:09:53;94048.97;;;24.67;55.30
10732;BME280;5417;42.686;23.244;2023-06-26T10:12:30;94050.91;;;24.96;56.21
10732;BME280;5417;42.686;23.244;2023-06-26T10:15:02;94040.03;;;25.04;53.61
10732;BME280;5417;42.686;23.244;2023-06-26T10:17:36;94045.06;;;25.12;54.27
10732;BME280;5417;42.686;23.244;2023-06-26T10:20:08;94043.59;;;24.98;53.83
10732;BME280;5417;42.686;23.244;2023-06-26T10:22:41;94038.34;;;24.85;54.55
10732;BME280;5417;42.686;23.244;2023-06-26T10:25:15;94044.56;;;24.79;54.69
10732;BME280;5417;42.686;23.244;2023-06-26T10:27:52;94048.47;;;24.76;54.93
10732;BME280;5417;42.686;23.244;2023-06-26T10:30:26;94050.31;;;24.58;55.24
10732;BME280;5417;42.686;23.244;2023-06-26T10:32:54;94058.66;;;24.61;55.90
10732;BME280;5417;42.686;23.244;2023-06-26T10:35:25;94050.75;;;24.54;54.38
10732;BME280;5417;42.686;23.244;2023-06-26T10:38:02;94052.75;;;24.59;56.78
10732;BME280;5417;42.686;23.244;2023-06-26T11:14:26;94030.25;;;24.30;55.02
10732;BME280;5417;42.686;23.244;2023-06-26T11:16:55;94026.59;;;24.24;54.90
10732;BME280;5417;42.686;23.244;2023-06-26T11:19:25;94024.06;;;24.11;54.39
10732;BME280;5417;42.686;23.244;2023-06-26T11:21:58;94034.47;;;24.13;53.26
10732;BME280;5417;42.686;23.244;2023-06-26T11:24:26;94028.34;;;24.12;53.74
10732;BME280;5417;42.686;23.244;2023-06-26T11:27:00;94029.97;;;24.13;52.61
10732;BME280;5417;42.686;23.244;2023-06-26T11:29:29;94011.94;;;24.15;53.78
10732;BME280;5417;42.686;23.244;2023-06-26T11:32:01;94028.44;;;24.24;52.93
10732;BME280;5417;42.686;23.244;2023-06-26T11:34:31;94025.38;;;24.27;53.24
10732;BME280;5417;42.686;23.244;2023-06-26T11:36:58;94023.13;;;24.24;53.41
10732;BME280;5417;42.686;23.244;2023-06-26T11:39:28;94022.88;;;24.32;53.65
10732;BME280;5417;42.686;23.244;2023-06-26T11:41:56;94022.06;;;24.32;53.74
10732;BME280;5417;42.686;23.244;2023-06-26T11:44:23;94014.84;;;24.39;54.47
10732;BME280;5417;42.686;23.244;2023-06-26T11:47:03;94023.59;;;24.46;54.50
10732;BME280;5417;42.686;23.244;2023-06-26T11:49:30;94029.44;;;24.54;54.45
10732;BME280;5417;42.686;23.244;2023-06-26T11:58:59;94014.53;;;24.72;51.63
10732;BME280;5417;42.686;23.244;2023-06-26T12:02:28;94019.63;;;24.73;52.59
10732;BME280;5417;42.686;23.244;2023-06-26T12:04:44;94019.56;;;24.80;52.51
10732;BME280;5417;42.686;23.244;2023-06-26T12:07:23;94013.06;;;24.76;52.25
10732;BME280;5417;42.686;23.244;2023-06-26T12:26:21;94016.91;;;24.37;51.75
10732;BME280;5417;42.686;23.244;2023-06-26T12:32:11;94009.81;;;24.24;53.92
10732;BME280;5417;42.686;23.244;2023-06-26T12:34:40;94020.06;;;24.27;53.38
10732;BME280;5417;42.686;23.244;2023-06-26T12:37:08;94018.22;;;24.28;53.64
10732;BME280;5417;42.686;23.244;2023-06-26T12:39:45;94024.13;;;24.30;54.11
10732;BME280;5417;42.686;23.244;2023-06-26T12:42:15;94013.50;;;24.23;54.53
10732;BME280;5417;42.686;23.244;2023-06-26T12:44:44;94019.84;;;24.29;53.25
10732;BME280;5417;42.686;23.244;2023-06-26T12:47:11;94016.16;;;24.30;53.24
10732;BME280;5417;42.686;23.244;2023-06-26T12:49:39;94012.22;;;24.32;53.27
10732;BME280;5417;42.686;23.244;2023-06-26T12:52:19;94018.91;;;24.41;54.67
10732;BME280;5417;42.686;23.244;2023-06-26T12:54:46;94006.84;;;24.39;55.63
10732;BME280;5417;42.686;23.244;2023-06-26T12:57:19;94010.81;;;24.54;55.88
10732;BME280;5417;42.686;23.244;2023-06-26T12:59:58;94015.31;;;24.54;57.16
10732;BME280;5417;42.686;23.244;2023-06-26T13:02:26;94012.75;;;24.66;57.54
10732;BME280;5417;42.686;23.244;2023-06-26T13:04:55;94003.72;;;24.67;55.67
10732;BME280;5417;42.686;23.244;2023-06-26T13:07:22;94003.22;;;24.58;55.69
10732;BME280;5417;42.686;23.244;2023-06-26T13:13:23;94010.81;;;24.54;57.73
10732;BME280;5417;42.686;23.244;2023-06-26T13:15:50;94016.66;;;24.63;56.65
10732;BME280;5417;42.686;23.244;2023-06-26T13:18:16;94010.25;;;24.71;58.16
10732;BME280;5417;42.686;23.244;2023-06-26T13:20:43;94020.66;;;24.91;56.13
10732;BME280;5417;42.686;23.244;2023-06-26T13:23:11;94013.56;;;24.84;57.23
10732;BME280;5417;42.686;23.244;2023-06-26T13:25:38;94013.78;;;24.83;57.47
10732;BME280;5417;42.686;23.244;2023-06-26T13:28:05;94008.53;;;24.76;54.40
10732;BME280;5417;42.686;23.244;2023-06-26T13:30:35;94017.41;;;24.70;53.28
10732;BME280;5417;42.686;23.244;2023-06-26T13:33:01;94002.53;;;24.63;52.69
10732;BME280;5417;42.686;23.244;2023-06-26T13:35:36;94013.63;;;24.60;53.42
10732;BME280;5417;42.686;23.244;2023-06-26T13:38:03;94009.50;;;24.64;53.37
10732;BME280;5417;42.686;23.244;2023-06-26T13:40:29;94008.38;;;24.53;53.10
10732;BME280;5417;42.686;23.244;2023-06-26T13:42:56;93998.88;;;24.39;52.09
10732;BME280;5417;42.686;23.244;2023-06-26T13:45:25;94026.19;;;24.52;53.30
10732;BME280;5417;42.686;23.244;2023-06-26T13:47:53;94020.06;;;24.52;52.67
10732;BME280;5417;42.686;23.244;2023-06-26T13:50:20;94015.47;;;24.59;53.58
10732;BME280;5417;42.686;23.244;2023-06-26T13:52:47;94010.47;;;24.44;54.24
10732;BME280;5417;42.686;23.244;2023-06-26T13:55:53;94024.59;;;24.45;55.47
10732;BME280;5417;42.686;23.244;2023-06-26T13:58:20;94034.34;;;24.33;55.43
10732;BME280;5417;42.686;23.244;2023-06-26T14:00:56;94011.72;;;24.17;56.18
10732;BME280;5417;42.686;23.244;2023-06-26T14:03:26;94027.00;;;24.28;55.55
10732;BME280;5417;42.686;23.244;2023-06-26T14:05:56;94026.13;;;24.34;55.16
10732;BME280;5417;42.686;23.244;2023-06-26T14:08:23;94022.28;;;24.30;52.33
10732;BME280;5417;42.686;23.244;2023-06-26T14:10:50;94022.44;;;24.35;53.25
10732;BME280;5417;42.686;23.244;2023-06-26T14:13:17;94031.78;;;24.44;53.42
10732;BME280;5417;42.686;23.244;2023-06-26T14:15:44;94010.66;;;24.49;52.86
10732;BME280;5417;42.686;23.244;2023-06-26T14:18:11;94011.94;;;24.65;51.74
10732;BME280;5417;42.686;23.244;2023-06-26T14:20:40;93998.72;;;24.77;52.29
10732;BME280;5417;42.686;23.244;2023-06-26T14:23:07;94000.78;;;24.93;52.36
10732;BME280;5417;42.686;23.244;2023-06-26T14:26:12;94005.19;;;25.06;50.24
10732;BME280;5417;42.686;23.244;2023-06-26T14:28:24;94018.50;;;25.06;50.86
10732;BME280;5417;42.686;23.244;2023-06-26T14:40:55;94007.13;;;24.99;52.44
10732;BME280;5417;42.686;23.244;2023-06-26T14:43:22;94005.50;;;24.91;51.29
10732;BME280;5417;42.686;23.244;2023-06-26T14:45:51;94010.59;;;24.93;50.48
10732;BME280;5417;42.686;23.244;2023-06-26T14:48:18;94015.25;;;24.97;50.89
10732;BME280;5417;42.686;23.244;2023-06-26T14:50:51;94004.78;;;24.84;51.70
10732;BME280;5417;42.686;23.244;2023-06-26T14:53:18;94006.41;;;24.67;52.54
10732;BME280;5417;42.686;23.244;2023-06-26T14:55:44;94009.88;;;24.67;51.95
10732;BME280;5417;42.686;23.244;2023-06-26T14:58:13;94004.78;;;24.66;52.17
10732;BME280;5417;42.686;23.244;2023-06-26T15:00:47;94008.31;;;24.60;54.43
10732;BME280;5417;42.686;23.244;2023-06-26T15:03:13;94015.31;;;24.54;57.43
10732;BME280;5417;42.686;23.244;2023-06-26T15:06:08;94013.41;;;24.61;56.68
10732;BME280;5417;42.686;23.244;2023-06-26T15:08:35;94019.84;;;24.72;57.24
10732;BME280;5417;42.686;23.244;2023-06-26T15:11:02;94025.53;;;24.75;56.53
10732;BME280;5417;42.686;23.244;2023-06-26T15:13:32;94020.88;;;24.71;57.60
10732;BME280;5417;42.686;23.244;2023-06-26T15:15:58;94017.94;;;24.61;58.34
10732;BME280;5417;42.686;23.244;2023-06-26T15:25:24;94024.88;;;24.37;58.07
10732;BME280;5417;42.686;23.244;2023-06-26T15:28:43;94026.19;;;24.52;55.40
10732;BME280;5417;42.686;23.244;2023-06-26T15:34:24;94025.78;;;24.74;59.41
10732;BME280;5417;42.686;23.244;2023-06-26T15:36:51;94016.31;;;24.78;58.08
10732;BME280;5417;42.686;23.244;2023-06-26T15:39:18;94013.78;;;24.83;58.87
10732;BME280;5417;42.686;23.244;2023-06-26T15:41:45;94013.88;;;24.76;58.86
10732;BME280;5417;42.686;23.244;2023-06-26T15:44:13;94022.97;;;24.87;58.53
10732;BME280;5417;42.686;23.244;2023-06-26T15:46:42;94018.66;;;24.86;59.95
10732;BME280;5417;42.686;23.244;2023-06-26T15:49:09;94015.78;;;24.88;58.81
10732;BME280;5417;42.686;23.244;2023-06-26T15:52:06;94014.38;;;24.85;58.88
10732;BME280;5417;42.686;23.244;2023-06-26T15:54:48;94015.41;;;24.84;58.63
10732;BME280;5417;42.686;23.244;2023-06-26T15:57:58;94025.25;;;24.83;60.21
10732;BME280;5417;42.686;23.244;2023-06-26T16:00:08;94019.56;;;24.80;60.03
10732;BME280;5417;42.686;23.244;2023-06-26T16:02:36;94014.69;;;24.77;59.77
10732;BME280;5417;42.686;23.244;2023-06-26T16:05:05;94021.84;;;24.76;58.61
10732;BME280;5417;42.686;23.244;2023-06-26T16:07:33;94021.25;;;24.74;58.38
10732;BME280;5417;42.686;23.244;2023-06-26T16:10:00;94020.44;;;24.74;58.98
10732;BME280;5417;42.686;23.244;2023-06-26T16:12:28;94022.66;;;24.77;58.19
10732;BME280;5417;42.686;23.244;2023-06-26T16:19:26;94019.63;;;24.73;55.72
10732;BME280;5417;42.686;23.244;2023-06-26T16:21:46;94028.09;;;24.45;59.68
10732;BME280;5417;42.686;23.244;2023-06-26T16:24:14;94016.97;;;24.30;61.09
10732;BME280;5417;42.686;23.244;2023-06-26T16:26:41;94015.56;;;24.28;62.07
10732;BME280;5417;42.686;23.244;2023-06-26T16:29:08;94022.28;;;24.30;62.62
10732;BME280;5417;42.686;23.244;2023-06-26T16:31:35;94021.03;;;24.33;63.44